Terminal Aerodrome Forecast
Issued by NWS

Home | Current Version | Previous Version | Text Only | Print | Product List | Glossary On
Versions: 1 2 3 4 5 6 7 8 9 10 11 12 13
000
FTUS46 KOTX 301734
TAFCOE
TAF
KCOE 301734Z 3018/3118 03011KT P6SM SKC
     FM302100 05008KT P6SM BKN120 OVC200
     FM302300 VRB06KT P6SM VCSH BKN100 OVC150
      TEMPO 3100/3103 22011G20KT -SHRA
     FM310400 16004KT P6SM BKN120
     FM310700 13005KT P6SM SKC
      AMD LTD TO CLD VIS AND WIND=

USA.gov is the U.S. government's official web portal to all federal, state and local government web resources and services.